sensor_id;sensor_type;location;lat;lon;timestamp;pressure;altitude;pressure_sealevel;temperature;humidity
63500;BME280;49654;51.142;14.924;2022-08-19T00:00:10;98298.72;;;26.34;45.08
63500;BME280;49654;51.142;14.924;2022-08-19T00:02:41;98290.31;;;26.41;43.10
63500;BME280;49654;51.142;14.924;2022-08-19T00:05:10;98282.91;;;26.65;43.61
63500;BME280;49654;51.142;14.924;2022-08-19T00:07:39;98284.13;;;26.82;41.86
63500;BME280;49654;51.142;14.924;2022-08-19T00:10:07;98287.25;;;26.84;41.39
63500;BME280;49654;51.142;14.924;2022-08-19T00:12:35;98289.19;;;26.92;40.92
63500;BME280;49654;51.142;14.924;2022-08-19T00:15:04;98285.09;;;26.86;40.97
63500;BME280;49654;51.142;14.924;2022-08-19T00:17:32;98284.38;;;26.94;40.44
63500;BME280;49654;51.142;14.924;2022-08-19T00:19:59;98279.69;;;27.00;40.04
63500;BME280;49654;51.142;14.924;2022-08-19T00:22:26;98275.53;;;27.07;39.83
63500;BME280;49654;51.142;14.924;2022-08-19T00:24:54;98270.75;;;26.95;40.48
63500;BME280;49654;51.142;14.924;2022-08-19T00:27:21;98271.78;;;26.86;40.90
63500;BME280;49654;51.142;14.924;2022-08-19T00:29:49;98260.81;;;26.87;40.32
63500;BME280;49654;51.142;14.924;2022-08-19T00:32:16;98251.72;;;26.88;39.40
63500;BME280;49654;51.142;14.924;2022-08-19T00:34:43;98268.25;;;26.99;39.33
63500;BME280;49654;51.142;14.924;2022-08-19T00:37:10;98272.13;;;26.93;39.43
63500;BME280;49654;51.142;14.924;2022-08-19T00:39:37;98277.13;;;26.72;41.80
63500;BME280;49654;51.142;14.924;2022-08-19T00:42:04;98242.38;;;26.18;43.30
63500;BME280;49654;51.142;14.924;2022-08-19T00:44:32;98281.53;;;26.04;44.12
63500;BME280;49654;51.142;14.924;2022-08-19T00:47:00;98286.66;;;25.87;44.70
63500;BME280;49654;51.142;14.924;2022-08-19T00:49:29;98230.25;;;25.30;45.36
63500;BME280;49654;51.142;14.924;2022-08-19T00:52:02;98278.31;;;25.47;46.23
63500;BME280;49654;51.142;14.924;2022-08-19T00:54:31;98277.69;;;25.22;47.25
63500;BME280;49654;51.142;14.924;2022-08-19T00:56:59;98274.25;;;25.03;48.13
63500;BME280;49654;51.142;14.924;2022-08-19T00:59:28;98274.00;;;24.86;49.24
63500;BME280;49654;51.142;14.924;2022-08-19T01:01:56;98245.13;;;24.46;49.84
63500;BME280;49654;51.142;14.924;2022-08-19T01:04:24;98266.69;;;24.40;49.74
63500;BME280;49654;51.142;14.924;2022-08-19T01:06:51;98270.53;;;24.29;50.06
63500;BME280;49654;51.142;14.924;2022-08-19T01:09:18;98279.81;;;24.07;50.76
63500;BME280;49654;51.142;14.924;2022-08-19T01:11:45;98250.00;;;23.72;52.47
63500;BME280;49654;51.142;14.924;2022-08-19T01:14:13;98284.66;;;23.76;52.70
63500;BME280;49654;51.142;14.924;2022-08-19T01:16:40;98265.91;;;23.43;53.90
63500;BME280;49654;51.142;14.924;2022-08-19T01:19:12;98269.47;;;23.29;54.36
63500;BME280;49654;51.142;14.924;2022-08-19T01:21:48;98272.28;;;23.13;55.54
63500;BME280;49654;51.142;14.924;2022-08-19T01:24:19;98265.91;;;23.14;55.12
63500;BME280;49654;51.142;14.924;2022-08-19T01:26:47;98268.41;;;23.01;55.79
63500;BME280;49654;51.142;14.924;2022-08-19T01:29:14;98268.47;;;22.90;56.50
63500;BME280;49654;51.142;14.924;2022-08-19T01:31:41;98274.59;;;22.81;55.68
63500;BME280;49654;51.142;14.924;2022-08-19T01:34:08;98276.81;;;22.68;55.01
63500;BME280;49654;51.142;14.924;2022-08-19T01:36:40;98289.56;;;22.56;55.43
63500;BME280;49654;51.142;14.924;2022-08-19T01:39:12;98283.81;;;22.44;55.61
63500;BME280;49654;51.142;14.924;2022-08-19T01:41:41;98299.69;;;22.44;56.47
63500;BME280;49654;51.142;14.924;2022-08-19T01:44:09;98291.31;;;22.32;56.47
63500;BME280;49654;51.142;14.924;2022-08-19T01:46:36;98299.03;;;22.18;57.36
63500;BME280;49654;51.142;14.924;2022-08-19T01:49:04;98300.09;;;22.12;57.15
63500;BME280;49654;51.142;14.924;2022-08-19T01:51:31;98282.69;;;21.95;57.46
63500;BME280;49654;51.142;14.924;2022-08-19T01:53:58;98305.16;;;21.98;58.17
63500;BME280;49654;51.142;14.924;2022-08-19T01:56:25;98298.56;;;21.95;58.39
63500;BME280;49654;51.142;14.924;2022-08-19T01:58:56;98294.34;;;21.94;58.67
63500;BME280;49654;51.142;14.924;2022-08-19T02:01:24;98294.88;;;21.91;58.22
63500;BME280;49654;51.142;14.924;2022-08-19T02:03:51;98303.34;;;21.93;57.40
63500;BME280;49654;51.142;14.924;2022-08-19T02:06:20;98306.28;;;21.71;57.21
63500;BME280;49654;51.142;14.924;2022-08-19T02:08:46;98329.50;;;21.90;57.39
63500;BME280;49654;51.142;14.924;2022-08-19T02:11:19;98339.75;;;22.07;61.07
63500;BME280;49654;51.142;14.924;2022-08-19T02:13:47;98319.13;;;22.09;61.65
63500;BME280;49654;51.142;14.924;2022-08-19T02:16:17;98330.47;;;22.24;61.70
63500;BME280;49654;51.142;14.924;2022-08-19T02:18:44;98344.47;;;22.30;61.72
63500;BME280;49654;51.142;14.924;2022-08-19T02:21:12;98341.84;;;22.25;62.15
63500;BME280;49654;51.142;14.924;2022-08-19T02:23:41;98350.06;;;22.18;64.00
63500;BME280;49654;51.142;14.924;2022-08-19T02:26:08;98356.41;;;22.17;65.06
63500;BME280;49654;51.142;14.924;2022-08-19T02:28:36;98351.13;;;22.12;66.95
63500;BME280;49654;51.142;14.924;2022-08-19T02:31:03;98353.78;;;22.07;68.40
63500;BME280;49654;51.142;14.924;2022-08-19T02:33:31;98363.06;;;21.94;69.48
63500;BME280;49654;51.142;14.924;2022-08-19T02:35:58;98368.06;;;21.91;69.72
63500;BME280;49654;51.142;14.924;2022-08-19T02:38:25;98336.94;;;21.72;69.75
63500;BME280;49654;51.142;14.924;2022-08-19T02:40:53;98361.22;;;21.85;70.18
63500;BME280;49654;51.142;14.924;2022-08-19T02:43:21;98333.78;;;21.65;70.31
63500;BME280;49654;51.142;14.924;2022-08-19T02:45:48;98345.38;;;21.85;71.05
63500;BME280;49654;51.142;14.924;2022-08-19T02:48:18;98357.22;;;21.92;71.34
63500;BME280;49654;51.142;14.924;2022-08-19T02:50:48;98355.94;;;21.85;71.92
63500;BME280;49654;51.142;14.924;2022-08-19T02:53:18;98357.53;;;21.86;71.63
63500;BME280;49654;51.142;14.924;2022-08-19T02:55:46;98291.28;;;21.36;72.00
63500;BME280;49654;51.142;14.924;2022-08-19T02:58:13;98367.31;;;21.80;71.92
63500;BME280;49654;51.142;14.924;2022-08-19T03:00:45;98378.94;;;21.79;72.05
63500;BME280;49654;51.142;14.924;2022-08-19T03:03:12;98378.13;;;21.79;72.21
63500;BME280;49654;51.142;14.924;2022-08-19T03:05:39;98384.50;;;21.72;72.62
63500;BME280;49654;51.142;14.924;2022-08-19T03:08:08;98390.84;;;21.71;72.75
63500;BME280;49654;51.142;14.924;2022-08-19T03:10:42;98386.09;;;21.63;72.66
63500;BME280;49654;51.142;14.924;2022-08-19T03:13:12;98399.03;;;21.65;73.53
63500;BME280;49654;51.142;14.924;2022-08-19T03:15:41;98394.28;;;21.57;73.72
63500;BME280;49654;51.142;14.924;2022-08-19T03:18:09;98386.38;;;21.41;74.78
63500;BME280;49654;51.142;14.924;2022-08-19T03:20:40;98411.47;;;21.59;74.51
63500;BME280;49654;51.142;14.924;2022-08-19T03:23:09;98365.97;;;21.26;74.33
63500;BME280;49654;51.142;14.924;2022-08-19T03:25:37;98417.25;;;21.46;74.81
63500;BME280;49654;51.142;14.924;2022-08-19T03:28:06;98416.19;;;21.52;74.35
63500;BME280;49654;51.142;14.924;2022-08-19T03:30:33;98420.41;;;21.53;74.20
63500;BME280;49654;51.142;14.924;2022-08-19T03:33:00;98427.03;;;21.56;73.80
63500;BME280;49654;51.142;14.924;2022-08-19T03:35:27;98420.16;;;21.49;74.05
63500;BME280;49654;51.142;14.924;2022-08-19T03:37:54;98430.44;;;21.41;74.40
63500;BME280;49654;51.142;14.924;2022-08-19T03:40:23;98426.75;;;21.37;74.87
63500;BME280;49654;51.142;14.924;2022-08-19T03:42:50;98409.28;;;21.25;74.68
63500;BME280;49654;51.142;14.924;2022-08-19T03:45:17;98439.91;;;21.16;74.89
63500;BME280;49654;51.142;14.924;2022-08-19T03:47:45;98436.72;;;21.09;75.67
63500;BME280;49654;51.142;14.924;2022-08-19T03:50:12;98402.31;;;20.73;76.40
63500;BME280;49654;51.142;14.924;2022-08-19T03:52:39;98432.19;;;20.99;77.07
63500;BME280;49654;51.142;14.924;2022-08-19T03:55:07;98399.97;;;20.87;77.47
63500;BME280;49654;51.142;14.924;2022-08-19T03:57:35;98413.44;;;21.01;77.68
63500;BME280;49654;51.142;14.924;2022-08-19T04:00:03;98411.38;;;21.08;77.81
63500;BME280;49654;51.142;14.924;2022-08-19T04:02:32;98403.97;;;21.15;77.56
63500;BME280;49654;51.142;14.924;2022-08-19T04:04:59;98395.53;;;21.13;77.31
63500;BME280;49654;51.142;14.924;2022-08-19T04:07:25;98414.81;;;21.19;77.56
63500;BME280;49654;51.142;14.924;2022-08-19T04:09:52;98415.88;;;21.23;77.31
63500;BME280;49654;51.142;14.924;2022-08-19T04:12:19;98387.59;;;21.08;77.63
63500;BME280;49654;51.142;14.924;2022-08-19T04:14:48;98402.16;;;21.21;77.45
63500;BME280;49654;51.142;14.924;2022-08-19T04:17:15;98383.91;;;21.09;77.20
63500;BME280;49654;51.142;14.924;2022-08-19T04:19:42;98401.38;;;21.31;77.31
63500;BME280;49654;51.142;14.924;2022-08-19T04:22:09;98401.94;;;21.38;77.45
63500;BME280;49654;51.142;14.924;2022-08-19T04:24:37;98399.03;;;21.44;77.34
63500;BME280;49654;51.142;14.924;2022-08-19T04:27:04;98367.88;;;21.41;77.36
63500;BME280;49654;51.142;14.924;2022-08-19T04:29:32;98392.16;;;21.54;77.10
63500;BME280;49654;51.142;14.924;2022-08-19T04:32:00;98378.16;;;21.43;77.33
63500;BME280;49654;51.142;14.924;2022-08-19T04:34:28;98406.19;;;21.54;77.11
63500;BME280;49654;51.142;14.924;2022-08-19T04:36:57;98411.19;;;21.61;77.14
63500;BME280;49654;51.142;14.924;2022-08-19T04:39:28;98404.56;;;21.58;77.22
63500;BME280;49654;51.142;14.924;2022-08-19T04:42:09;98412.50;;;21.79;76.06
63500;BME280;49654;51.142;14.924;2022-08-19T04:44:54;98409.84;;;21.84;76.28
63500;BME280;49654;51.142;14.924;2022-08-19T04:47:22;98413.53;;;21.98;75.38
63500;BME280;49654;51.142;14.924;2022-08-19T04:49:49;98410.91;;;21.98;75.92
63500;BME280;49654;51.142;14.924;2022-08-19T04:52:16;98400.03;;;22.05;75.14
63500;BME280;49654;51.142;14.924;2022-08-19T04:54:42;98395.00;;;22.13;74.80
63500;BME280;49654;51.142;14.924;2022-08-19T04:57:09;98388.91;;;22.18;74.29
63500;BME280;49654;51.142;14.924;2022-08-19T04:59:37;98399.22;;;22.24;74.13
63500;BME280;49654;51.142;14.924;2022-08-19T05:02:04;98350.09;;;21.98;73.27
63500;BME280;49654;51.142;14.924;2022-08-19T05:04:34;98418.72;;;22.44;73.25
63500;BME280;49654;51.142;14.924;2022-08-19T05:07:05;98422.97;;;22.50;72.98
63500;BME280;49654;51.142;14.924;2022-08-19T05:09:32;98413.69;;;22.47;73.17
63500;BME280;49654;51.142;14.924;2022-08-19T05:11:59;98415.72;;;22.71;72.83
63500;BME280;49654;51.142;14.924;2022-08-19T05:14:26;98392.16;;;22.74;72.05
63500;BME280;49654;51.142;14.924;2022-08-19T05:16:53;98404.81;;;22.93;71.87
63500;BME280;49654;51.142;14.924;2022-08-19T05:19:20;98411.81;;;23.18;70.63
63500;BME280;49654;51.142;14.924;2022-08-19T05:22:06;98425.28;;;23.21;70.45
63500;BME280;49654;51.142;14.924;2022-08-19T05:27:13;98428.56;;;23.47;69.43
63500;BME280;49654;51.142;14.924;2022-08-19T05:29:40;98422.88;;;23.59;68.56
63500;BME280;49654;51.142;14.924;2022-08-19T05:32:07;98437.94;;;23.64;68.46
63500;BME280;49654;51.142;14.924;2022-08-19T05:34:36;98428.09;;;23.74;68.26
63500;BME280;49654;51.142;14.924;2022-08-19T05:37:05;98435.94;;;23.90;68.10
63500;BME280;49654;51.142;14.924;2022-08-19T05:39:34;98434.91;;;23.46;68.79
63500;BME280;49654;51.142;14.924;2022-08-19T05:42:05;98441.66;;;23.29;69.72
63500;BME280;49654;51.142;14.924;2022-08-19T05:44:35;98448.78;;;23.33;70.02
63500;BME280;49654;51.142;14.924;2022-08-19T05:47:04;98430.59;;;23.21;69.78
63500;BME280;49654;51.142;14.924;2022-08-19T05:49:32;98458.13;;;23.26;70.36
63500;BME280;49654;51.142;14.924;2022-08-19T05:52:01;98458.69;;;23.17;70.71
63500;BME280;49654;51.142;14.924;2022-08-19T05:54:30;98452.81;;;23.26;70.46
63500;BME280;49654;51.142;14.924;2022-08-19T05:56:58;98473.84;;;23.46;69.91
63500;BME280;49654;51.142;14.924;2022-08-19T05:59:24;98478.00;;;23.62;70.06
63500;BME280;49654;51.142;14.924;2022-08-19T06:01:52;98439.63;;;23.55;69.41
63500;BME280;49654;51.142;14.924;2022-08-19T06:04:22;98467.13;;;23.69;69.00
63500;BME280;49654;51.142;14.924;2022-08-19T06:06:51;98491.22;;;23.67;68.91
63500;BME280;49654;51.142;14.924;2022-08-19T06:09:20;98482.78;;;23.60;69.26
63500;BME280;49654;51.142;14.924;2022-08-19T06:11:50;98464.38;;;23.40;69.01
63500;BME280;49654;51.142;14.924;2022-08-19T06:14:22;98491.47;;;23.71;69.11
63500;BME280;49654;51.142;14.924;2022-08-19T06:16:50;98482.22;;;23.68;68.81
63500;BME280;49654;51.142;14.924;2022-08-19T06:19:19;98494.41;;;24.04;68.10
63500;BME280;49654;51.142;14.924;2022-08-19T06:21:49;98489.34;;;24.07;67.45
63500;BME280;49654;51.142;14.924;2022-08-19T06:24:17;98492.38;;;24.24;66.78
63500;BME280;49654;51.142;14.924;2022-08-19T06:26:47;98496.91;;;24.48;65.82
63500;BME280;49654;51.142;14.924;2022-08-19T06:29:16;98497.16;;;24.52;64.71
63500;BME280;49654;51.142;14.924;2022-08-19T06:31:45;98512.38;;;24.41;65.11
63500;BME280;49654;51.142;14.924;2022-08-19T06:34:15;98515.44;;;24.24;65.86
63500;BME280;49654;51.142;14.924;2022-08-19T06:36:45;98520.56;;;24.44;64.16
63500;BME280;49654;51.142;14.924;2022-08-19T06:39:14;98505.78;;;24.86;63.85
63500;BME280;49654;51.142;14.924;2022-08-19T06:41:44;98496.72;;;24.92;63.27
63500;BME280;49654;51.142;14.924;2022-08-19T06:44:11;98496.16;;;24.71;62.96
63500;BME280;49654;51.142;14.924;2022-08-19T06:46:41;98509.44;;;24.71;64.02
63500;BME280;49654;51.142;14.924;2022-08-19T06:49:09;98489.75;;;24.48;63.49
63500;BME280;49654;51.142;14.924;2022-08-19T06:51:40;98527.41;;;24.74;63.53
63500;BME280;49654;51.142;14.924;2022-08-19T06:54:07;98502.00;;;24.15;64.58
63500;BME280;49654;51.142;14.924;2022-08-19T06:56:35;98529.91;;;24.08;65.46
63500;BME280;49654;51.142;14.924;2022-08-19T06:59:03;98529.34;;;24.11;65.63
63500;BME280;49654;51.142;14.924;2022-08-19T07:01:34;98559.47;;;24.59;64.89
63500;BME280;49654;51.142;14.924;2022-08-19T07:04:05;98571.84;;;24.35;64.60
63500;BME280;49654;51.142;14.924;2022-08-19T07:06:32;98553.09;;;23.92;66.09
63500;BME280;49654;51.142;14.924;2022-08-19T07:08:59;98581.25;;;24.22;65.63
63500;BME280;49654;51.142;14.924;2022-08-19T07:11:27;98582.78;;;24.28;65.63
63500;BME280;49654;51.142;14.924;2022-08-19T07:13:54;98576.13;;;24.31;64.67
63500;BME280;49654;51.142;14.924;2022-08-19T07:16:21;98578.78;;;24.65;63.95
63500;BME280;49654;51.142;14.924;2022-08-19T07:18:49;98570.59;;;24.85;62.80
63500;BME280;49654;51.142;14.924;2022-08-19T07:21:19;98570.88;;;24.84;61.82
63500;BME280;49654;51.142;14.924;2022-08-19T07:23:47;98587.56;;;24.89;61.62
63500;BME280;49654;51.142;14.924;2022-08-19T07:26:15;98583.69;;;25.01;61.50
63500;BME280;49654;51.142;14.924;2022-08-19T07:28:43;98583.09;;;24.85;61.65
63500;BME280;49654;51.142;14.924;2022-08-19T07:31:10;98607.84;;;24.80;62.29
63500;BME280;49654;51.142;14.924;2022-08-19T07:33:38;98621.59;;;24.53;63.43
63500;BME280;49654;51.142;14.924;2022-08-19T07:36:07;98619.88;;;24.38;63.97
63500;BME280;49654;51.142;14.924;2022-08-19T07:38:38;98611.75;;;24.24;64.45
63500;BME280;49654;51.142;14.924;2022-08-19T07:41:06;98627.22;;;24.12;65.27
63500;BME280;49654;51.142;14.924;2022-08-19T07:43:33;98635.13;;;24.17;65.20
63500;BME280;49654;51.142;14.924;2022-08-19T07:46:00;98630.13;;;24.16;65.69
63500;BME280;49654;51.142;14.924;2022-08-19T07:48:27;98624.31;;;24.09;65.59
63500;BME280;49654;51.142;14.924;2022-08-19T07:50:58;98638.03;;;24.21;65.57
63500;BME280;49654;51.142;14.924;2022-08-19T07:53:27;98625.69;;;24.01;66.00
63500;BME280;49654;51.142;14.924;2022-08-19T07:55:56;98622.38;;;24.19;65.39
63500;BME280;49654;51.142;14.924;2022-08-19T07:58:25;98620.03;;;24.52;64.79
63500;BME280;49654;51.142;14.924;2022-08-19T08:00:53;98629.03;;;24.56;64.61
63500;BME280;49654;51.142;14.924;2022-08-19T08:03:21;98630.94;;;24.80;63.89
63500;BME280;49654;51.142;14.924;2022-08-19T08:06:10;98640.81;;;24.74;63.79
63500;BME280;49654;51.142;14.924;2022-08-19T08:08:54;98630.69;;;24.47;64.05
63500;BME280;49654;51.142;14.924;2022-08-19T08:11:48;98638.25;;;24.64;64.39
63500;BME280;49654;51.142;14.924;2022-08-19T08:14:18;98591.19;;;24.45;63.81
63500;BME280;49654;51.142;14.924;2022-08-19T08:16:47;98638.25;;;24.93;62.64
63500;BME280;49654;51.142;14.924;2022-08-19T08:19:16;98631.94;;;24.84;63.26
63500;BME280;49654;51.142;14.924;2022-08-19T08:21:43;98631.31;;;24.97;62.64
63500;BME280;49654;51.142;14.924;2022-08-19T08:24:10;98633.59;;;25.33;61.55
63500;BME280;49654;51.142;14.924;2022-08-19T08:26:38;98618.34;;;25.19;61.41
63500;BME280;49654;51.142;14.924;2022-08-19T08:29:06;98602.78;;;24.79;62.24
63500;BME280;49654;51.142;14.924;2022-08-19T08:31:36;98616.53;;;24.86;62.76
63500;BME280;49654;51.142;14.924;2022-08-19T08:34:03;98639.66;;;24.85;63.31
63500;BME280;49654;51.142;14.924;2022-08-19T08:36:30;98656.69;;;24.50;64.43
63500;BME280;49654;51.142;14.924;2022-08-19T08:38:59;98638.97;;;24.40;64.79
63500;BME280;49654;51.142;14.924;2022-08-19T08:41:30;98650.81;;;24.53;64.97
63500;BME280;49654;51.142;14.924;2022-08-19T08:44:00;98655.44;;;24.32;65.47
63500;BME280;49654;51.142;14.924;2022-08-19T08:46:35;98648.31;;;24.33;65.53
63500;BME280;49654;51.142;14.924;2022-08-19T08:49:21;98626.22;;;23.98;66.36
63500;BME280;49654;51.142;14.924;2022-08-19T08:51:52;98639.47;;;24.03;66.82
63500;BME280;49654;51.142;14.924;2022-08-19T08:54:25;98630.78;;;23.92;67.13
63500;BME280;49654;51.142;14.924;2022-08-19T08:56:56;98649.69;;;23.76;67.99
63500;BME280;49654;51.142;14.924;2022-08-19T08:59:26;98631.72;;;23.72;67.72
63500;BME280;49654;51.142;14.924;2022-08-19T09:01:58;98631.72;;;23.67;68.53
63500;BME280;49654;51.142;14.924;2022-08-19T09:04:25;98662.19;;;23.70;68.30
63500;BME280;49654;51.142;14.924;2022-08-19T09:07:09;98662.94;;;23.76;68.91
63500;BME280;49654;51.142;14.924;2022-08-19T09:09:43;98664.88;;;23.49;68.93
63500;BME280;49654;51.142;14.924;2022-08-19T09:12:18;98680.78;;;23.65;69.57
63500;BME280;49654;51.142;14.924;2022-08-19T09:14:52;98662.16;;;23.75;68.28
63500;BME280;49654;51.142;14.924;2022-08-19T09:17:23;98647.97;;;24.00;67.67
63500;BME280;49654;51.142;14.924;2022-08-19T09:19:58;98617.78;;;23.96;66.48
63500;BME280;49654;51.142;14.924;2022-08-19T09:22:26;98629.75;;;24.28;65.11
63500;BME280;49654;51.142;14.924;2022-08-19T09:24:54;98624.31;;;24.48;64.73
63500;BME280;49654;51.142;14.924;2022-08-19T09:27:22;98620.75;;;24.63;64.18
63500;BME280;49654;51.142;14.924;2022-08-19T09:29:50;98612.59;;;25.07;63.23
63500;BME280;49654;51.142;14.924;2022-08-19T09:32:20;98600.47;;;25.87;59.81
63500;BME280;49654;51.142;14.924;2022-08-19T09:34:48;98616.50;;;26.33;59.02
63500;BME280;49654;51.142;14.924;2022-08-19T09:37:15;98620.53;;;26.50;57.95
63500;BME280;49654;51.142;14.924;2022-08-19T09:39:42;98628.75;;;26.67;56.93
63500;BME280;49654;51.142;14.924;2022-08-19T09:42:09;98646.59;;;26.34;57.31
63500;BME280;49654;51.142;14.924;2022-08-19T09:44:38;98663.53;;;25.62;59.29
63500;BME280;49654;51.142;14.924;2022-08-19T09:47:05;98665.81;;;25.26;61.54
63500;BME280;49654;51.142;14.924;2022-08-19T09:49:33;98671.31;;;25.06;61.79
63500;BME280;49654;51.142;14.924;2022-08-19T09:52:01;98682.38;;;24.89;62.65
63500;BME280;49654;51.142;14.924;2022-08-19T09:54:28;98677.94;;;25.08;62.04
63500;BME280;49654;51.142;14.924;2022-08-19T09:56:57;98685.75;;;24.94;61.92
63500;BME280;49654;51.142;14.924;2022-08-19T09:59:26;98691.19;;;24.79;62.17
63500;BME280;49654;51.142;14.924;2022-08-19T10:01:53;98698.31;;;24.84;62.94
63500;BME280;49654;51.142;14.924;2022-08-19T10:04:20;98712.03;;;24.67;63.06
63500;BME280;49654;51.142;14.924;2022-08-19T10:06:49;98712.19;;;24.81;63.08
63500;BME280;49654;51.142;14.924;2022-08-19T10:09:18;98715.03;;;24.89;62.57
63500;BME280;49654;51.142;14.924;2022-08-19T10:11:45;98695.75;;;24.73;62.54
63500;BME280;49654;51.142;14.924;2022-08-19T10:14:13;98701.63;;;24.70;62.97
63500;BME280;49654;51.142;14.924;2022-08-19T10:16:40;98716.31;;;24.92;62.16
63500;BME280;49654;51.142;14.924;2022-08-19T10:19:08;98707.94;;;25.14;61.81
63500;BME280;49654;51.142;14.924;2022-08-19T10:21:35;98712.34;;;25.23;61.32
63500;BME280;49654;51.142;14.924;2022-08-19T10:24:05;98711.59;;;24.89;61.98
63500;BME280;49654;51.142;14.924;2022-08-19T10:26:36;98715.28;;;24.88;62.17
63500;BME280;49654;51.142;14.924;2022-08-19T10:29:04;98695.41;;;24.85;61.98
63500;BME280;49654;51.142;14.924;2022-08-19T10:31:33;98710.84;;;25.12;61.83
63500;BME280;49654;51.142;14.924;2022-08-19T10:34:01;98722.13;;;25.28;61.52
63500;BME280;49654;51.142;14.924;2022-08-19T10:36:29;98711.50;;;25.28;60.89
63500;BME280;49654;51.142;14.924;2022-08-19T10:38:59;98707.28;;;25.22;60.97
63500;BME280;49654;51.142;14.924;2022-08-19T10:41:29;98723.81;;;25.43;60.56
63500;BME280;49654;51.142;14.924;2022-08-19T10:43:59;98733.50;;;25.34;60.85
63500;BME280;49654;51.142;14.924;2022-08-19T10:46:28;98702.28;;;25.44;60.06
63500;BME280;49654;51.142;14.924;2022-08-19T10:48:56;98716.50;;;26.20;58.16
63500;BME280;49654;51.142;14.924;2022-08-19T10:51:23;98725.00;;;26.22;57.94
63500;BME280;49654;51.142;14.924;2022-08-19T10:54:08;98716.22;;;26.41;57.05
63500;BME280;49654;51.142;14.924;2022-08-19T10:56:35;98732.44;;;26.44;57.26
63500;BME280;49654;51.142;14.924;2022-08-19T10:59:22;98733.16;;;26.69;57.08
63500;BME280;49654;51.142;14.924;2022-08-19T11:01:50;98737.16;;;26.85;56.06
63500;BME280;49654;51.142;14.924;2022-08-19T11:04:19;98735.94;;;26.78;56.37
63500;BME280;49654;51.142;14.924;2022-08-19T11:06:47;98726.22;;;26.68;56.24
63500;BME280;49654;51.142;14.924;2022-08-19T11:09:15;98743.38;;;26.62;56.47
63500;BME280;49654;51.142;14.924;2022-08-19T11:11:43;98733.34;;;26.73;56.89
63500;BME280;49654;51.142;14.924;2022-08-19T11:14:13;98736.66;;;27.16;55.31
63500;BME280;49654;51.142;14.924;2022-08-19T11:16:42;98741.25;;;27.10;55.02
63500;BME280;49654;51.142;14.924;2022-08-19T11:19:11;98741.00;;;26.93;55.36
63500;BME280;49654;51.142;14.924;2022-08-19T11:21:40;98732.78;;;26.89;55.28
63500;BME280;49654;51.142;14.924;2022-08-19T11:24:10;98739.25;;;26.69;56.10
63500;BME280;49654;51.142;14.924;2022-08-19T11:26:38;98736.81;;;26.73;56.08
63500;BME280;49654;51.142;14.924;2022-08-19T11:29:07;98741.50;;;26.95;55.98
63500;BME280;49654;51.142;14.924;2022-08-19T11:31:37;98740.41;;;26.96;54.91
63500;BME280;49654;51.142;14.924;2022-08-19T11:34:09;98737.25;;;26.61;56.05
63500;BME280;49654;51.142;14.924;2022-08-19T11:36:38;98735.66;;;26.22;56.99
63500;BME280;49654;51.142;14.924;2022-08-19T11:39:07;98739.91;;;26.42;56.20
63500;BME280;49654;51.142;14.924;2022-08-19T11:41:34;98749.59;;;26.33;56.69
63500;BME280;49654;51.142;14.924;2022-08-19T11:44:03;98753.44;;;26.46;56.97
63500;BME280;49654;51.142;14.924;2022-08-19T11:46:30;98749.94;;;26.83;55.85
63500;BME280;49654;51.142;14.924;2022-08-19T11:48:59;98728.97;;;26.95;55.17
63500;BME280;49654;51.142;14.924;2022-08-19T11:51:29;98746.16;;;27.03;55.00
63500;BME280;49654;51.142;14.924;2022-08-19T11:53:58;98740.03;;;27.63;53.83
63500;BME280;49654;51.142;14.924;2022-08-19T11:56:27;98745.53;;;27.25;54.07
63500;BME280;49654;51.142;14.924;2022-08-19T11:58:55;98728.75;;;26.92;54.22
63500;BME280;49654;51.142;14.924;2022-08-19T12:01:24;98744.25;;;26.90;54.17
63500;BME280;49654;51.142;14.924;2022-08-19T12:03:53;98735.78;;;27.02;54.43
63500;BME280;49654;51.142;14.924;2022-08-19T12:06:23;98742.59;;;26.94;54.16
63500;BME280;49654;51.142;14.924;2022-08-19T12:08:56;98742.28;;;26.95;54.66
63500;BME280;49654;51.142;14.924;2022-08-19T12:11:23;98742.00;;;27.30;53.66
63500;BME280;49654;51.142;14.924;2022-08-19T12:13:50;98730.38;;;27.67;52.74
63500;BME280;49654;51.142;14.924;2022-08-19T12:16:20;98716.06;;;28.27;50.94
63500;BME280;49654;51.142;14.924;2022-08-19T12:18:48;98714.28;;;29.12;48.38
63500;BME280;49654;51.142;14.924;2022-08-19T12:21:18;98719.94;;;30.07;46.56
63500;BME280;49654;51.142;14.924;2022-08-19T12:23:49;98712.34;;;29.83;46.48
63500;BME280;49654;51.142;14.924;2022-08-19T12:26:21;98717.59;;;30.84;43.98
63500;BME280;49654;51.142;14.924;2022-08-19T12:28:48;98725.56;;;31.10;43.54
63500;BME280;49654;51.142;14.924;2022-08-19T12:31:15;98707.59;;;33.32;39.17
63500;BME280;49654;51.142;14.924;2022-08-19T12:33:43;98717.84;;;32.48;40.38
63500;BME280;49654;51.142;14.924;2022-08-19T12:36:12;98712.59;;;34.19;35.66
63500;BME280;49654;51.142;14.924;2022-08-19T12:38:39;98713.28;;;35.67;33.50
63500;BME280;49654;51.142;14.924;2022-08-19T12:41:11;98713.56;;;34.83;34.74
63500;BME280;49654;51.142;14.924;2022-08-19T12:43:39;98718.56;;;35.60;33.73
63500;BME280;49654;51.142;14.924;2022-08-19T12:46:07;98717.50;;;35.84;32.65
63500;BME280;49654;51.142;14.924;2022-08-19T12:48:38;98691.44;;;34.61;34.16
63500;BME280;49654;51.142;14.924;2022-08-19T12:51:08;98697.22;;;32.73;37.86
63500;BME280;49654;51.142;14.924;2022-08-19T12:53:36;98715.16;;;33.75;36.76
63500;BME280;49654;51.142;14.924;2022-08-19T12:56:04;98713.88;;;33.85;36.81
63500;BME280;49654;51.142;14.924;2022-08-19T12:58:31;98727.56;;;31.60;40.40
63500;BME280;49654;51.142;14.924;2022-08-19T13:01:06;98726.91;;;30.60;42.93